createdAt,value
2023-05-05T00:01:27.696Z,47.89
2023-05-05T00:03:09.066Z,48.30
2023-05-05T00:04:50.422Z,48.98
2023-05-05T00:06:31.774Z,48.14
2023-05-05T00:08:13.077Z,47.94
2023-05-05T00:09:54.349Z,48.59
2023-05-05T00:11:35.618Z,47.58
2023-05-05T00:13:16.938Z,47.36
2023-05-05T00:14:58.230Z,48.24
2023-05-05T00:16:39.618Z,47.39
2023-05-05T00:18:20.956Z,49.20
2023-05-05T00:20:02.235Z,47.62
2023-05-05T00:21:43.523Z,49.58
2023-05-05T00:23:24.852Z,48.36
2023-05-05T00:25:06.159Z,46.76
2023-05-05T00:26:47.452Z,47.61
2023-05-05T00:28:28.756Z,49.12
2023-05-05T00:30:10.231Z,48.45
2023-05-05T00:31:51.610Z,48.55
2023-05-05T00:33:32.900Z,48.05
2023-05-05T00:35:14.180Z,47.00
2023-05-05T00:36:55.495Z,47.04
2023-05-05T00:38:36.784Z,48.20
2023-05-05T00:40:18.064Z,46.49
2023-05-05T00:41:59.378Z,46.65
2023-05-05T00:43:40.697Z,46.03
2023-05-05T00:45:22.029Z,46.95
2023-05-05T00:47:03.310Z,45.44
2023-05-05T00:48:44.634Z,45.67
2023-05-05T00:50:25.999Z,46.73
2023-05-05T00:52:07.386Z,46.93
2023-05-05T00:53:48.736Z,46.79
2023-05-05T00:55:30.099Z,47.21
2023-05-05T00:57:11.439Z,48.31
2023-05-05T00:58:52.701Z,47.64
2023-05-05T01:00:33.992Z,46.95
2023-05-05T01:02:15.333Z,46.66
2023-05-05T01:03:56.771Z,47.74
2023-05-05T01:05:38.129Z,46.46
2023-05-05T01:07:19.444Z,45.42
2023-05-05T01:09:00.744Z,45.52
2023-05-05T01:10:42.050Z,45.36
2023-05-05T01:12:23.409Z,45.83
2023-05-05T01:14:04.704Z,47.33
2023-05-05T01:15:46.015Z,47.36
2023-05-05T01:17:27.343Z,47.34
2023-05-05T01:19:08.686Z,47.82
2023-05-05T01:20:50.015Z,46.80
2023-05-05T01:22:31.309Z,48.59
2023-05-05T01:24:12.600Z,47.55
2023-05-05T01:25:53.911Z,48.26
2023-05-05T01:27:35.219Z,47.21
2023-05-05T01:29:16.507Z,46.08
2023-05-05T01:30:57.785Z,46.03
2023-05-05T01:32:39.127Z,48.14
2023-05-05T01:34:20.457Z,47.38
2023-05-05T01:36:01.701Z,48.72
2023-05-05T01:37:43.003Z,48.11
2023-05-05T01:39:24.306Z,47.38
2023-05-05T01:41:05.608Z,47.51
2023-05-05T01:42:46.922Z,48.26
2023-05-05T01:44:28.211Z,48.27
2023-05-05T01:46:09.548Z,48.50
2023-05-05T01:47:50.986Z,47.16
2023-05-05T01:49:32.352Z,47.97
2023-05-05T01:51:13.632Z,47.43
2023-05-05T01:52:54.989Z,46.99
2023-05-05T01:54:36.307Z,46.70
2023-05-05T01:56:17.613Z,47.58
2023-05-05T01:57:58.861Z,49.11
2023-05-05T01:59:40.156Z,49.52
2023-05-05T02:01:21.547Z,49.16
2023-05-05T02:03:03.021Z,47.80
2023-05-05T02:04:44.426Z,49.49
2023-05-05T02:06:25.729Z,48.34
2023-05-05T02:08:07.000Z,47.81
2023-05-05T02:09:48.287Z,49.24
2023-05-05T02:11:29.629Z,49.90
2023-05-05T02:13:11.047Z,48.20
2023-05-05T02:14:52.424Z,49.34
2023-05-05T02:16:33.707Z,50.79
2023-05-05T02:18:14.994Z,50.71
2023-05-05T02:19:56.268Z,51.61
2023-05-05T02:21:37.620Z,51.80
2023-05-05T02:23:18.930Z,50.87
2023-05-05T02:25:00.206Z,52.32
2023-05-05T02:26:41.507Z,52.20
2023-05-05T02:28:22.762Z,50.00
2023-05-05T02:30:04.070Z,49.39
2023-05-05T02:31:45.399Z,50.59
2023-05-05T02:33:26.767Z,50.45
2023-05-05T02:35:08.070Z,48.70
2023-05-05T02:36:49.348Z,48.98
2023-05-05T02:38:30.629Z,48.66
2023-05-05T02:40:11.951Z,49.14
2023-05-05T02:41:53.222Z,47.71
2023-05-05T02:43:34.535Z,46.63
2023-05-05T02:45:15.838Z,46.25
2023-05-05T02:46:57.131Z,46.24
2023-05-05T02:48:38.436Z,45.26
2023-05-05T02:50:19.732Z,45.03
2023-05-05T02:52:01.015Z,44.83
2023-05-05T02:53:42.290Z,44.67
2023-05-05T02:55:23.598Z,45.02
2023-05-05T02:57:04.863Z,44.88
2023-05-05T02:58:46.169Z,45.12
2023-05-05T03:00:27.453Z,45.63
2023-05-05T03:02:08.769Z,46.41
2023-05-05T03:03:50.239Z,47.11
2023-05-05T03:05:31.656Z,47.33
2023-05-05T03:07:12.962Z,48.25
2023-05-05T03:08:54.233Z,48.38
2023-05-05T03:10:35.555Z,47.60
2023-05-05T03:12:16.836Z,46.30
2023-05-05T03:13:58.129Z,47.40
2023-05-05T03:15:39.455Z,47.85
2023-05-05T03:17:20.784Z,48.76
2023-05-05T03:19:02.109Z,50.15
2023-05-05T03:20:43.400Z,49.95
2023-05-05T03:22:24.652Z,48.70
2023-05-05T03:24:05.977Z,49.92
2023-05-05T03:25:47.259Z,51.37
2023-05-05T03:27:28.514Z,49.11
2023-05-05T03:29:09.804Z,49.63
2023-05-05T03:30:51.092Z,49.39
2023-05-05T03:32:32.436Z,50.39
2023-05-05T03:34:13.792Z,50.12
2023-05-05T03:35:55.098Z,50.02
2023-05-05T03:37:36.367Z,48.49
2023-05-05T03:39:17.707Z,49.46
2023-05-05T03:40:59.054Z,49.53
2023-05-05T03:42:40.316Z,50.41
2023-05-05T03:44:21.600Z,49.79
2023-05-05T03:46:02.966Z,49.85
2023-05-05T03:47:44.261Z,50.53
2023-05-05T03:49:25.560Z,49.05
2023-05-05T03:51:06.837Z,49.41
2023-05-05T03:52:48.309Z,50.28
2023-05-05T03:54:29.624Z,48.62
2023-05-05T03:56:10.922Z,48.92
2023-05-05T03:57:52.235Z,48.27
2023-05-05T03:59:33.496Z,46.61
2023-05-05T04:01:14.790Z,46.77
2023-05-05T04:02:56.142Z,46.77
2023-05-05T04:04:37.505Z,47.35
2023-05-05T04:06:18.806Z,49.14
2023-05-05T04:08:00.124Z,50.73
2023-05-05T04:09:41.451Z,50.44
2023-05-05T04:11:22.740Z,50.77
2023-05-05T04:13:05.470Z,49.74
2023-05-05T04:14:46.816Z,50.71
2023-05-05T04:16:28.223Z,49.96
2023-05-05T04:18:09.757Z,49.88
2023-05-05T04:19:51.114Z,49.90
2023-05-05T04:21:32.417Z,51.23
2023-05-05T04:23:13.693Z,49.88
2023-05-05T04:24:55.017Z,53.17
2023-05-05T04:26:36.369Z,51.17
2023-05-05T04:28:18.710Z,49.41
2023-05-05T04:30:01.572Z,50.60
2023-05-05T04:31:42.955Z,52.14
2023-05-05T04:33:24.322Z,49.57
2023-05-05T04:35:05.637Z,49.68
2023-05-05T04:36:46.938Z,49.67
2023-05-05T04:38:28.266Z,50.69
2023-05-05T04:40:09.786Z,49.72
2023-05-05T04:41:51.216Z,51.19
2023-05-05T04:43:32.525Z,50.49
2023-05-05T04:45:13.835Z,49.50
2023-05-05T04:46:55.202Z,52.41
2023-05-05T04:48:36.612Z,51.61
2023-05-05T04:50:17.900Z,50.82
2023-05-05T04:51:59.170Z,49.42
2023-05-05T04:53:40.511Z,49.61
2023-05-05T04:55:21.824Z,50.76
2023-05-05T04:57:03.106Z,51.46
2023-05-05T04:58:44.411Z,50.40
2023-05-05T05:00:25.709Z,51.91
2023-05-05T05:02:07.043Z,49.54
2023-05-05T05:03:48.445Z,48.75
2023-05-05T05:05:29.726Z,48.78
2023-05-05T05:07:10.995Z,50.67
2023-05-05T05:08:52.297Z,50.92
2023-05-05T05:10:33.606Z,50.59
2023-05-05T05:12:14.927Z,49.53
2023-05-05T05:13:56.232Z,48.86
2023-05-05T05:15:37.513Z,50.65
2023-05-05T05:17:18.832Z,50.36
2023-05-05T05:19:01.684Z,50.08
2023-05-05T05:20:43.272Z,50.93
2023-05-05T05:22:24.560Z,48.25
2023-05-05T05:24:05.870Z,50.81
2023-05-05T05:25:47.152Z,49.63
2023-05-05T05:27:28.462Z,51.11
2023-05-05T05:29:09.736Z,50.72
2023-05-05T05:30:51.079Z,50.13
2023-05-05T05:32:32.378Z,51.23
2023-05-05T05:34:13.709Z,51.40
2023-05-05T05:35:55.003Z,50.51
2023-05-05T05:37:36.285Z,48.65
2023-05-05T05:39:17.638Z,50.71
2023-05-05T05:40:58.950Z,50.60
2023-05-05T05:42:40.267Z,51.75
2023-05-05T05:44:21.556Z,47.61
2023-05-05T05:46:02.897Z,48.34
2023-05-05T05:47:44.257Z,48.04
2023-05-05T05:49:25.561Z,48.12
2023-05-05T05:51:06.872Z,47.04
2023-05-05T05:52:48.176Z,47.30
2023-05-05T05:54:29.463Z,47.99
2023-05-05T05:56:10.758Z,44.25
2023-05-05T05:57:52.229Z,45.84
2023-05-05T05:59:33.554Z,48.91
2023-05-05T06:01:14.866Z,49.78
2023-05-05T06:02:56.251Z,49.71
2023-05-05T06:04:37.723Z,47.49
2023-05-05T06:06:19.023Z,47.26
2023-05-05T06:08:00.362Z,49.75
2023-05-05T06:09:41.692Z,50.47
2023-05-05T06:11:23.007Z,46.35
2023-05-05T06:13:04.313Z,45.80
2023-05-05T06:14:45.630Z,46.07
2023-05-05T06:16:27.054Z,44.96
2023-05-05T06:18:08.448Z,44.02
2023-05-05T06:19:49.784Z,44.80
2023-05-05T06:21:31.112Z,46.18
2023-05-05T06:23:12.403Z,45.49
2023-05-05T06:24:53.718Z,46.63
2023-05-05T06:26:35.027Z,47.86
2023-05-05T06:28:16.326Z,47.70
2023-05-05T06:29:57.657Z,46.89
2023-05-05T06:31:39.090Z,46.98
2023-05-05T06:33:20.410Z,46.93
2023-05-05T06:35:01.718Z,47.47
2023-05-05T06:36:43.043Z,45.79
2023-05-05T06:38:24.409Z,47.49
2023-05-05T06:40:05.877Z,47.98
2023-05-05T06:41:47.235Z,46.72
2023-05-05T06:43:28.550Z,48.97
2023-05-05T06:45:09.853Z,45.75
2023-05-05T06:46:51.374Z,46.20
2023-05-05T06:48:32.693Z,46.60
2023-05-05T06:50:14.003Z,47.32
2023-05-05T06:51:55.304Z,47.30
2023-05-05T06:53:36.587Z,47.17
2023-05-05T06:55:17.891Z,46.18
2023-05-05T06:56:59.796Z,44.35
2023-05-05T06:58:41.166Z,44.12
2023-05-05T07:00:22.457Z,45.01
2023-05-05T07:02:03.770Z,44.16
2023-05-05T07:03:45.085Z,44.17
2023-05-05T07:05:26.390Z,43.94
2023-05-05T07:07:07.669Z,42.91
2023-05-05T07:08:48.967Z,42.73
2023-05-05T07:10:30.260Z,42.88
2023-05-05T07:12:11.528Z,43.14
2023-05-05T07:13:52.901Z,42.84
2023-05-05T07:15:34.228Z,41.74
2023-05-05T07:17:15.488Z,43.06
2023-05-05T07:18:56.887Z,41.19
2023-05-05T07:20:38.173Z,41.01
2023-05-05T07:22:19.465Z,41.99
2023-05-05T07:24:00.784Z,40.22
2023-05-05T07:25:42.091Z,39.13
2023-05-05T07:27:23.368Z,38.89
2023-05-05T07:29:04.686Z,39.10
2023-05-05T07:30:45.999Z,38.71
2023-05-05T07:32:27.297Z,37.82
2023-05-05T07:34:08.668Z,40.26
2023-05-05T07:35:49.943Z,40.51
2023-05-05T07:37:31.211Z,39.17
2023-05-05T07:39:12.529Z,36.76
2023-05-05T07:40:53.841Z,36.98
2023-05-05T07:42:35.148Z,37.57
2023-05-05T07:44:16.498Z,36.50
2023-05-05T07:45:57.806Z,36.25
2023-05-05T07:47:39.199Z,36.18
2023-05-05T07:49:20.617Z,35.86
2023-05-05T07:51:03.130Z,36.99
2023-05-05T07:52:49.881Z,37.75
2023-05-05T07:54:35.134Z,36.82
2023-05-05T07:56:16.440Z,36.59
2023-05-05T07:57:57.749Z,35.76
2023-05-05T07:59:39.061Z,36.31
2023-05-05T08:01:20.349Z,36.05
2023-05-05T08:03:01.746Z,36.56
2023-05-05T08:04:43.171Z,37.06
2023-05-05T08:06:24.504Z,37.46
2023-05-05T08:08:05.845Z,36.01
2023-05-05T08:09:47.144Z,35.38
2023-05-05T08:11:29.611Z,35.84
2023-05-05T08:13:11.077Z,35.54
2023-05-05T08:14:52.424Z,35.18
2023-05-05T08:16:33.873Z,34.30
2023-05-05T08:18:15.312Z,33.29
2023-05-05T08:19:56.634Z,33.48
2023-05-05T08:21:37.945Z,31.65
2023-05-05T08:23:19.259Z,31.26
2023-05-05T08:25:00.574Z,30.35
2023-05-05T08:26:41.856Z,30.41
2023-05-05T08:28:23.187Z,31.35
2023-05-05T08:30:04.518Z,32.43
2023-05-05T08:31:45.907Z,33.02
2023-05-05T08:33:27.240Z,34.28
2023-05-05T08:35:08.777Z,34.28
2023-05-05T08:36:50.384Z,34.35
2023-05-05T08:38:31.651Z,34.50
2023-05-05T08:40:12.986Z,34.10
2023-05-05T08:41:54.271Z,35.91
2023-05-05T08:43:35.594Z,34.62
2023-05-05T08:45:16.922Z,34.34
2023-05-05T08:46:58.673Z,34.66
2023-05-05T08:48:40.026Z,33.85
2023-05-05T08:50:21.288Z,34.19
2023-05-05T08:52:02.644Z,33.03
2023-05-05T08:53:43.962Z,31.68
2023-05-05T08:55:25.308Z,31.60
2023-05-05T08:57:06.666Z,31.05
2023-05-05T08:58:47.964Z,29.99
2023-05-05T09:00:29.238Z,30.93
2023-05-05T09:02:10.605Z,29.26
2023-05-05T09:03:52.690Z,29.31
2023-05-05T09:05:34.111Z,30.40
2023-05-05T09:07:15.398Z,31.96
2023-05-05T09:08:58.958Z,32.93
2023-05-05T09:10:40.950Z,32.56
2023-05-05T09:12:22.256Z,33.20
2023-05-05T09:14:03.588Z,31.75
2023-05-05T09:15:44.868Z,33.30
2023-05-05T09:17:26.323Z,33.76
2023-05-05T09:19:07.654Z,33.01
2023-05-05T09:20:48.937Z,33.13
2023-05-05T09:22:30.259Z,32.40
2023-05-05T09:24:11.619Z,32.93
2023-05-05T09:25:52.940Z,32.05
2023-05-05T09:27:34.271Z,32.29
2023-05-05T09:29:15.579Z,31.44
2023-05-05T09:30:56.927Z,30.74
2023-05-05T09:32:38.274Z,31.24
2023-05-05T09:34:19.559Z,33.88
2023-05-05T09:36:00.862Z,32.97
2023-05-05T09:37:42.186Z,33.91
2023-05-05T09:39:23.454Z,33.67
2023-05-05T09:41:04.751Z,33.45
2023-05-05T09:42:46.087Z,33.14
2023-05-05T09:44:27.378Z,33.42
2023-05-05T09:46:08.837Z,33.52
2023-05-05T09:47:50.591Z,30.03
2023-05-05T09:49:32.026Z,31.15
2023-05-05T09:51:13.356Z,31.33
2023-05-05T09:52:54.665Z,31.75
2023-05-05T09:54:36.004Z,31.00
2023-05-05T09:56:17.323Z,32.39
2023-05-05T09:57:58.645Z,32.32
2023-05-05T09:59:39.993Z,31.42
2023-05-05T10:01:21.350Z,32.85
2023-05-05T10:03:02.736Z,32.38
2023-05-05T10:04:44.096Z,32.54
2023-05-05T10:06:25.531Z,32.82
2023-05-05T10:08:06.852Z,32.37
2023-05-05T10:09:48.183Z,33.09
2023-05-05T10:11:29.465Z,31.83
2023-05-05T10:13:10.823Z,31.86
2023-05-05T10:14:52.130Z,33.14
2023-05-05T10:16:33.501Z,31.75
2023-05-05T10:18:14.880Z,30.57
2023-05-05T10:19:56.211Z,29.72
2023-05-05T10:21:37.523Z,30.43
2023-05-05T10:23:18.832Z,30.71
2023-05-05T10:25:00.171Z,28.81
2023-05-05T10:26:41.473Z,31.21
2023-05-05T10:28:22.767Z,30.43
2023-05-05T10:30:04.078Z,28.68
2023-05-05T10:31:45.401Z,29.16
2023-05-05T10:33:32.082Z,29.05
2023-05-05T10:35:13.618Z,28.98
2023-05-05T10:36:54.913Z,29.01
2023-05-05T10:38:36.253Z,29.57
2023-05-05T10:40:17.618Z,28.48
2023-05-05T10:41:58.938Z,28.49
2023-05-05T10:43:40.314Z,29.47
2023-05-05T10:45:21.634Z,28.21
2023-05-05T10:47:02.934Z,29.42
2023-05-05T10:48:44.327Z,29.68
2023-05-05T10:50:25.627Z,29.32
2023-05-05T10:52:06.898Z,28.92
2023-05-05T10:53:48.241Z,30.15
2023-05-05T10:55:29.586Z,28.79
2023-05-05T10:57:10.940Z,30.54
2023-05-05T10:58:59.602Z,29.11
2023-05-05T11:00:41.754Z,30.81
2023-05-05T11:02:23.054Z,31.01
2023-05-05T11:04:04.420Z,31.18
2023-05-05T11:05:45.791Z,30.50
2023-05-05T11:07:27.081Z,29.25
2023-05-05T11:09:08.379Z,29.73
2023-05-05T11:10:49.720Z,29.37
2023-05-05T11:12:31.136Z,29.32
2023-05-05T11:14:12.466Z,29.82
2023-05-05T11:15:53.773Z,28.66
2023-05-05T11:17:35.208Z,29.56
2023-05-05T11:19:16.520Z,29.87
2023-05-05T11:20:57.828Z,29.43
2023-05-05T11:22:39.117Z,30.12
2023-05-05T11:24:20.403Z,31.51
2023-05-05T11:26:01.710Z,31.82
2023-05-05T11:27:42.985Z,32.05
2023-05-05T11:29:24.283Z,31.35
2023-05-05T11:31:05.589Z,32.05
2023-05-05T11:32:46.956Z,31.50
2023-05-05T11:34:28.297Z,32.17
2023-05-05T11:36:09.602Z,32.98
2023-05-05T11:37:50.915Z,31.69
2023-05-05T11:39:32.204Z,31.90
2023-05-05T11:41:13.488Z,33.02
2023-05-05T11:42:54.797Z,32.20
2023-05-05T11:44:36.093Z,33.08
2023-05-05T11:46:17.450Z,31.66
2023-05-05T11:47:58.874Z,31.81
2023-05-05T11:49:40.191Z,32.57
2023-05-05T11:51:21.524Z,32.68
2023-05-05T11:53:02.837Z,30.80
2023-05-05T11:54:44.109Z,31.60
2023-05-05T11:56:25.447Z,30.09
2023-05-05T11:58:06.754Z,30.13
2023-05-05T11:59:49.407Z,31.14
2023-05-05T12:01:31.031Z,30.55
2023-05-05T12:03:12.458Z,30.46
2023-05-05T12:04:53.840Z,30.32
2023-05-05T12:06:35.239Z,29.63
2023-05-05T12:08:16.516Z,30.07
2023-05-05T12:09:57.830Z,30.23
2023-05-05T12:11:39.158Z,30.20
2023-05-05T12:13:20.583Z,29.64
2023-05-05T12:15:01.958Z,30.40
2023-05-05T12:16:43.303Z,29.92
2023-05-05T12:18:24.700Z,28.57
2023-05-05T12:20:06.059Z,29.18
2023-05-05T12:21:47.454Z,28.06
2023-05-05T12:23:28.728Z,27.91
2023-05-05T12:25:10.045Z,28.81
2023-05-05T12:26:51.411Z,28.77
2023-05-05T12:28:32.701Z,29.13
2023-05-05T12:30:13.995Z,28.40
2023-05-05T12:31:55.340Z,27.79
2023-05-05T12:33:36.638Z,28.18
2023-05-05T12:35:17.905Z,27.70
2023-05-05T12:36:59.249Z,25.97
2023-05-05T12:38:40.701Z,28.67
2023-05-05T12:40:22.017Z,29.66
2023-05-05T12:42:03.336Z,31.77
2023-05-05T12:43:44.696Z,32.61
2023-05-05T12:45:25.987Z,33.26
2023-05-05T12:47:07.298Z,32.45
2023-05-05T12:48:48.715Z,33.78
2023-05-05T12:50:30.055Z,33.98
2023-05-05T12:52:11.353Z,34.24
2023-05-05T12:53:52.635Z,34.60
2023-05-05T12:55:33.974Z,34.42
2023-05-05T12:57:15.307Z,34.39
2023-05-05T12:58:56.635Z,32.67
2023-05-05T13:00:37.946Z,31.73
2023-05-05T13:02:19.357Z,31.74
2023-05-05T13:04:00.680Z,31.89
2023-05-05T13:05:42.006Z,31.22
2023-05-05T13:07:23.328Z,31.21
2023-05-05T13:09:04.625Z,32.55
2023-05-05T13:10:45.905Z,33.36
2023-05-05T13:12:27.202Z,34.94
2023-05-05T13:14:08.539Z,33.67
2023-05-05T13:15:49.857Z,34.10
2023-05-05T13:17:32.807Z,33.65
2023-05-05T13:19:15.982Z,33.83
2023-05-05T13:20:57.270Z,33.36
2023-05-05T13:22:38.609Z,32.61
2023-05-05T13:24:28.667Z,33.15
2023-05-05T13:26:19.759Z,33.61
2023-05-05T13:28:01.044Z,33.18
2023-05-05T13:29:42.428Z,34.42
2023-05-05T13:31:23.765Z,36.18
2023-05-05T13:33:05.237Z,36.56
2023-05-05T13:34:46.570Z,36.48
2023-05-05T13:36:27.860Z,36.23
2023-05-05T13:38:09.136Z,36.91
2023-05-05T13:39:50.476Z,36.17
2023-05-05T13:41:31.798Z,35.88
2023-05-05T13:43:13.100Z,36.13
2023-05-05T13:44:54.425Z,36.68
2023-05-05T13:46:35.754Z,37.74
2023-05-05T13:48:17.033Z,36.43
2023-05-05T13:49:58.321Z,34.81
2023-05-05T13:51:39.596Z,34.75
2023-05-05T13:53:20.865Z,34.57
2023-05-05T13:55:02.188Z,34.77
2023-05-05T13:56:43.471Z,35.48
2023-05-05T13:58:24.782Z,36.69
2023-05-05T14:00:06.094Z,36.12
2023-05-05T14:01:47.405Z,35.91
2023-05-05T14:03:28.688Z,35.20
2023-05-05T14:05:10.299Z,35.43
2023-05-05T14:06:51.761Z,34.79
2023-05-05T14:08:33.056Z,34.89
2023-05-05T14:10:14.383Z,33.86
2023-05-05T14:11:55.709Z,33.27
2023-05-05T14:13:37.081Z,32.01
2023-05-05T14:15:18.429Z,31.42
2023-05-05T14:16:59.801Z,32.42
2023-05-05T14:18:41.231Z,31.70
2023-05-05T14:20:22.588Z,31.96
2023-05-05T14:22:03.877Z,30.60
2023-05-05T14:23:45.159Z,31.52
2023-05-05T14:25:26.589Z,31.93
2023-05-05T14:27:07.887Z,33.26
2023-05-05T14:28:50.087Z,34.29
2023-05-05T14:30:31.539Z,33.77
2023-05-05T14:32:12.838Z,34.00
2023-05-05T14:33:54.236Z,35.46
2023-05-05T14:35:35.531Z,35.05
2023-05-05T14:37:16.808Z,34.57
2023-05-05T14:38:58.114Z,33.85
2023-05-05T14:40:39.468Z,33.11
2023-05-05T14:42:20.748Z,32.03
2023-05-05T14:44:02.050Z,31.56
2023-05-05T14:45:43.377Z,32.20
2023-05-05T14:47:24.720Z,32.38
2023-05-05T14:49:06.052Z,33.72
2023-05-05T14:50:47.390Z,34.38
2023-05-05T14:52:28.684Z,33.67
2023-05-05T14:54:20.460Z,34.16
2023-05-05T14:56:08.434Z,33.79
2023-05-05T14:57:49.724Z,34.15
2023-05-05T14:59:30.998Z,33.59
2023-05-05T15:01:12.338Z,33.03
2023-05-05T15:02:53.831Z,32.78
2023-05-05T15:04:35.231Z,32.15
2023-05-05T15:06:16.504Z,33.10
2023-05-05T15:07:57.800Z,33.81
2023-05-05T15:09:39.081Z,34.44
2023-05-05T15:11:20.364Z,34.79
2023-05-05T15:13:01.773Z,33.39
2023-05-05T15:14:43.236Z,33.00
2023-05-05T15:16:24.567Z,33.35
2023-05-05T15:18:05.943Z,36.15
2023-05-05T15:19:47.271Z,37.42
2023-05-05T15:21:28.560Z,37.85
2023-05-05T15:23:09.872Z,37.89
2023-05-05T15:24:51.184Z,36.76
2023-05-05T15:26:32.453Z,37.21
2023-05-05T15:28:13.721Z,37.79
2023-05-05T15:29:55.033Z,36.99
2023-05-05T15:31:36.380Z,37.69
2023-05-05T15:33:17.691Z,37.03
2023-05-05T15:34:59.047Z,36.72
2023-05-05T15:36:40.322Z,36.56
2023-05-05T15:38:21.603Z,36.33
2023-05-05T15:40:03.001Z,36.42
2023-05-05T15:41:44.361Z,36.92
2023-05-05T15:43:25.729Z,37.82
2023-05-05T15:45:07.182Z,37.29
2023-05-05T15:46:50.520Z,36.33
2023-05-05T15:48:32.013Z,35.75
2023-05-05T15:50:13.313Z,35.91
2023-05-05T15:51:54.636Z,36.39
2023-05-05T15:53:35.916Z,35.73
2023-05-05T15:55:17.237Z,36.33
2023-05-05T15:56:58.549Z,35.92
2023-05-05T15:58:39.837Z,35.70
2023-05-05T16:00:21.153Z,36.02
2023-05-05T16:02:02.537Z,36.51
2023-05-05T16:03:43.867Z,36.31
2023-05-05T16:05:25.418Z,36.11
2023-05-05T16:07:06.770Z,37.07
2023-05-05T16:08:48.087Z,37.46
2023-05-05T16:10:29.353Z,37.46
2023-05-05T16:12:10.643Z,37.41
2023-05-05T16:13:51.921Z,37.52
2023-05-05T16:15:33.200Z,37.10
2023-05-05T16:17:14.519Z,37.41
2023-05-05T16:18:55.814Z,37.38
2023-05-05T16:20:37.084Z,36.60
2023-05-05T16:22:18.396Z,36.98
2023-05-05T16:24:18.402Z,37.03
2023-05-05T16:25:59.670Z,36.76
2023-05-05T16:27:41.006Z,36.84
2023-05-05T16:29:22.333Z,36.80
2023-05-05T16:31:03.611Z,37.36
2023-05-05T16:32:44.924Z,37.15
2023-05-05T16:34:26.212Z,37.07
2023-05-05T16:36:07.530Z,37.04
2023-05-05T16:37:48.858Z,37.41
2023-05-05T16:39:30.152Z,37.42
2023-05-05T16:41:11.493Z,36.89
2023-05-05T16:42:52.874Z,37.18
2023-05-05T16:44:34.153Z,37.57
2023-05-05T16:46:15.486Z,37.25
2023-05-05T16:47:56.885Z,37.83
2023-05-05T16:49:38.199Z,37.39
2023-05-05T16:51:19.485Z,36.78
2023-05-05T16:53:00.792Z,37.41
2023-05-05T16:54:42.205Z,38.04
2023-05-05T16:56:23.461Z,38.12
2023-05-05T16:58:04.804Z,39.18
2023-05-05T16:59:46.425Z,39.34
2023-05-05T17:01:27.791Z,38.84
2023-05-05T17:03:09.133Z,38.11
2023-05-05T17:04:50.735Z,38.02
2023-05-05T17:06:32.033Z,38.21
2023-05-05T17:08:13.340Z,38.27
2023-05-05T17:09:54.636Z,39.02
2023-05-05T17:11:36.180Z,38.74
2023-05-05T17:13:17.550Z,38.51
2023-05-05T17:14:58.924Z,38.55
2023-05-05T17:16:40.257Z,39.06
2023-05-05T17:18:21.541Z,38.72
2023-05-05T17:20:02.833Z,39.13
2023-05-05T17:21:44.142Z,38.98
2023-05-05T17:23:25.440Z,38.49
2023-05-05T17:25:06.879Z,38.44
2023-05-05T17:26:48.373Z,38.65
2023-05-05T17:28:29.688Z,38.76
2023-05-05T17:30:11.025Z,38.88
2023-05-05T17:31:52.379Z,38.66
2023-05-05T17:33:33.740Z,39.28
2023-05-05T17:35:15.045Z,39.33
2023-05-05T17:36:56.352Z,39.06
2023-05-05T17:38:37.669Z,38.58
2023-05-05T17:40:18.976Z,38.95
2023-05-05T17:42:00.291Z,39.53
2023-05-05T17:43:41.583Z,39.90
2023-05-05T17:45:22.860Z,39.92
2023-05-05T17:47:04.172Z,39.40
2023-05-05T17:48:45.487Z,40.41
2023-05-05T17:50:26.807Z,40.55
2023-05-05T17:52:08.123Z,42.09
2023-05-05T17:53:49.441Z,42.67
2023-05-05T17:55:30.758Z,41.83
2023-05-05T17:57:12.104Z,42.23
2023-05-05T17:58:53.443Z,43.10
2023-05-05T18:00:34.783Z,43.40
2023-05-05T18:02:16.083Z,42.78
2023-05-05T18:03:57.386Z,42.63
2023-05-05T18:05:38.675Z,42.38
2023-05-05T18:07:19.975Z,42.81
2023-05-05T18:09:01.414Z,41.19
2023-05-05T18:10:42.772Z,40.49
2023-05-05T18:12:24.049Z,40.00
2023-05-05T18:14:05.362Z,40.62
2023-05-05T18:15:46.647Z,40.91
2023-05-05T18:17:27.945Z,41.13
2023-05-05T18:19:09.316Z,42.45
2023-05-05T18:20:50.576Z,43.61
2023-05-05T18:22:31.864Z,45.34
2023-05-05T18:24:20.095Z,46.52
2023-05-05T18:26:04.260Z,47.42
2023-05-05T18:27:45.598Z,47.17
2023-05-05T18:29:26.912Z,47.04
2023-05-05T18:31:08.251Z,47.45
2023-05-05T18:32:49.685Z,45.89
2023-05-05T18:34:31.003Z,45.19
2023-05-05T18:36:12.320Z,47.59
2023-05-05T18:37:53.656Z,47.92
2023-05-05T18:39:35.078Z,48.14
2023-05-05T18:41:16.407Z,49.64
2023-05-05T18:42:57.756Z,49.76
2023-05-05T18:44:39.041Z,50.24
2023-05-05T18:46:20.385Z,50.76
2023-05-05T18:48:01.747Z,50.85
2023-05-05T18:49:43.045Z,50.84
2023-05-05T18:51:24.335Z,50.86
2023-05-05T18:53:05.644Z,50.24
2023-05-05T18:54:46.947Z,48.71
2023-05-05T18:56:28.244Z,49.67
2023-05-05T18:58:09.539Z,49.65
2023-05-05T18:59:50.870Z,49.60
2023-05-05T19:01:32.177Z,49.05
2023-05-05T19:03:13.494Z,47.97
2023-05-05T19:04:54.897Z,46.24
2023-05-05T19:06:36.236Z,45.91
2023-05-05T19:08:17.612Z,46.96
2023-05-05T19:09:58.955Z,48.01
2023-05-05T19:11:40.260Z,48.58
2023-05-05T19:13:21.644Z,48.75
2023-05-05T19:15:03.077Z,47.75
2023-05-05T19:16:44.489Z,49.06
2023-05-05T19:18:25.895Z,48.27
2023-05-05T19:20:07.205Z,48.07
2023-05-05T19:21:48.513Z,48.61
2023-05-05T19:23:29.829Z,49.17
2023-05-05T19:25:11.433Z,48.52
2023-05-05T19:26:53.012Z,47.81
2023-05-05T19:28:34.289Z,47.80
2023-05-05T19:30:15.627Z,46.85
2023-05-05T19:31:56.945Z,48.20
2023-05-05T19:33:38.258Z,49.04
2023-05-05T19:35:19.556Z,49.52
2023-05-05T19:37:00.831Z,48.73
2023-05-05T19:38:42.112Z,50.78
2023-05-05T19:40:23.451Z,49.65
2023-05-05T19:42:04.853Z,49.49
2023-05-05T19:43:46.173Z,51.01
2023-05-05T19:45:27.472Z,51.34
2023-05-05T19:47:09.064Z,52.83
2023-05-05T19:48:52.112Z,53.44
2023-05-05T19:50:33.426Z,53.07
2023-05-05T19:52:14.697Z,53.24
2023-05-05T19:53:55.976Z,53.35
2023-05-05T19:55:37.273Z,54.00
2023-05-05T19:57:18.619Z,53.82
2023-05-05T19:58:59.928Z,54.05
2023-05-05T20:00:41.331Z,53.54
2023-05-05T20:02:22.662Z,52.87
2023-05-05T20:04:04.020Z,52.70
2023-05-05T20:05:45.338Z,53.34
2023-05-05T20:07:26.633Z,53.02
2023-05-05T20:09:07.936Z,53.02
2023-05-05T20:10:49.263Z,53.21
2023-05-05T20:12:30.563Z,54.49
2023-05-05T20:14:11.892Z,54.59
2023-05-05T20:15:53.227Z,55.07
2023-05-05T20:17:34.570Z,55.50
2023-05-05T20:19:15.887Z,55.89
2023-05-05T20:20:57.216Z,54.59
2023-05-05T20:22:40.091Z,52.42
2023-05-05T20:24:21.922Z,51.54
2023-05-05T20:26:03.273Z,50.10
2023-05-05T20:27:44.587Z,49.21
2023-05-05T20:29:25.883Z,47.97
2023-05-05T20:31:07.255Z,48.59
2023-05-05T20:32:48.605Z,49.30
2023-05-05T20:34:29.959Z,49.62
2023-05-05T20:36:11.311Z,48.93
2023-05-05T20:37:52.698Z,48.22
2023-05-05T20:39:34.006Z,48.04
2023-05-05T20:41:15.281Z,48.49
2023-05-05T20:42:56.582Z,47.91
2023-05-05T20:44:37.909Z,47.32
2023-05-05T20:46:19.220Z,47.42
2023-05-05T20:48:00.585Z,47.37
2023-05-05T20:49:41.937Z,47.52
2023-05-05T20:51:23.284Z,47.80
2023-05-05T20:53:04.683Z,47.70
2023-05-05T20:54:45.987Z,49.06
2023-05-05T20:56:27.347Z,49.66
2023-05-05T20:58:08.665Z,49.06
2023-05-05T20:59:49.930Z,50.04
2023-05-05T21:01:31.323Z,49.40
2023-05-05T21:03:12.750Z,49.91
2023-05-05T21:04:54.084Z,49.62
2023-05-05T21:06:53.839Z,48.98
2023-05-05T21:08:53.653Z,50.93
2023-05-05T21:10:53.368Z,53.39
2023-05-05T21:12:53.275Z,53.63
2023-05-05T21:14:34.682Z,53.77
2023-05-05T21:16:15.963Z,53.49
2023-05-05T21:17:57.566Z,52.18
2023-05-05T21:19:38.895Z,52.56
2023-05-05T21:21:20.224Z,54.22
2023-05-05T21:23:01.568Z,54.07
2023-05-05T21:24:42.862Z,53.75
2023-05-05T21:26:24.166Z,53.88
2023-05-05T21:28:05.619Z,54.65
2023-05-05T21:29:46.922Z,55.26
2023-05-05T21:31:46.723Z,53.52
2023-05-05T21:33:46.512Z,52.71
2023-05-05T21:35:46.316Z,53.79
2023-05-05T21:37:46.023Z,54.31
2023-05-05T21:39:27.304Z,55.04
2023-05-05T21:41:27.087Z,55.15
2023-05-05T21:43:26.769Z,55.51
2023-05-05T21:45:26.663Z,54.94
2023-05-05T21:47:26.441Z,53.66
2023-05-05T21:49:26.055Z,53.34
2023-05-05T21:51:25.820Z,54.14